メインページ
METAR-TAF:

METAR-TAF

空港 :

アリス・スプリングス空港

アリススプリングス, オーストラリア

緯度: 23-48S, 経度: 133-53E, 海抜: 545m

現時点の気象観測

当レポートは15分前の13:00(UTC)に作成
の風 6kt
気温 34°C
湿度 14%
気圧 1011 hPa
視程10km以上

METAR: YBAS 201300Z AUTO 09006KT 9999 // NCD 34/03 Q1011 RF00.0/000.0

時間: 22:45 (13:15 UTC)

予報

当レポートは1時間52分前の11:23(UTC)に作成
予報は20日の 12時(UTC)から 21日の 12時(UTC)まで有効
の風 6kt
視程10km以上
1,500メートル以下は雲なし、積乱雲なし
21日の 0100時(UTC)から
の風 15kt、最大25ktの突風を伴う
視程10km以上
1,500メートル以下は雲なし、積乱雲なし
21日の 0900時(UTC)から
の風 8kt
視程10km以上
1,500メートル以下は雲なし、積乱雲なし

TAF: YBAS 201123Z 2012/2112 08006KT CAVOK FM210100 08015G25KT CAVOK FM210900 08008KT CAVOK

4,000以上の空港の気象観測と天気予報(METAR報とTAF報)

利用可能な観測所は地図上に黄色い丸と赤い丸で示す。

丸の上にカーソルを重ねると観測所名を参照できる。

次にクリックすると気象観測と天気予報を参照できる。

マップの切り替え:黒色「×」印の緑ボタンをクリックして拡大、「-」印の緑ボタンをクリックして縮小、緑色の三角印をクリックして隣りの地図に切り替え


METAR-TAF: